NCAR-RAP Real-Time Weather Data

Output produced by METARs form (08 May 2021  16:04 UTC)
found at http://weather.rap.ucar.edu/surface/
 
KLHX 081553Z AUTO 27012G18KT 10SM CLR 27/01 A2967 RMK AO2 SLP982 T02720011
KLHX 081453Z AUTO 25010KT 10SM CLR 22/03 A2969 RMK AO2 SLP994 T02220028 50002
KLHX 081353Z AUTO 26007KT 10SM CLR 19/03 A2970 RMK AO2 SLP998 T01890033
KLHX 081253Z AUTO 23009KT 10SM CLR 16/03 A2969 RMK AO2 SLP996 T01610028
KLHX 081153Z AUTO 25009KT 10SM CLR 16/02 A2968 RMK AO2 SLP988 T01560022 10200 20150 56008
KLHX 081053Z AUTO 22012KT 10SM CLR 17/02 A2969 RMK AO2 SLP989 T01670022
KLHX 080953Z AUTO 25010KT 10SM CLR 16/02 A2969 RMK AO2 SLP991 T01560022
KLHX 080853Z AUTO 22013KT 10SM CLR 17/03 A2971 RMK AO2 SLP995 T01720028 58017
KLHX 080753Z AUTO 22018KT 10SM CLR 18/03 A2973 RMK AO2 SLP001 T01830028
KLHX 080653Z AUTO 21014KT 10SM CLR 18/03 A2975 RMK AO2 SLP011 T01830028 403280072
KLHX 080553Z AUTO 21011KT 10SM CLR 20/02 A2977 RMK AO2 SLP016 60000 T02000022 10306 20194 58006
KLHX 080453Z AUTO 21010KT 10SM CLR 20/02 A2977 RMK AO2 SLP024 T02000022
KLHX 080353Z AUTO 18006KT 10SM CLR 22/03 A2979 RMK AO2 SLP029 T02170033
KLHX 080253Z AUTO 16008KT 10SM CLR 22/02 A2979 RMK AO2 SLP034 60000 T02220022 55008